Terminal Aerodrome Forecast
Issued by NWS

Home | Current Version | Previous Version | Text Only | Print | Product List | Glossary On
Versions: 1 2 3 4 5 6 7 8 9 10 11 12 13 14 15 16 17
000
FTUS41 KGYX 060520
TAFPSM
TAF
KPSM 060520Z 0606/0706 31012KT P6SM FEW150 SCT180
     FM060900 31007KT P6SM SKC
     FM061600 26005KT P6SM SKC
     FM070000 23005KT P6SM BKN250=

USA.gov is the U.S. government's official web portal to all federal, state and local government web resources and services.